Time;durP1;ratioP1;P1;durP2;ratioP2;P2;SDS_P1;SDS_P2;PMS_P1;PMS_P2;Temp;Humidity;BMP_temperature;BMP_pressure;BME280_temperature;BME280_humidity;BME280_pressure;Samples;Min_cycle;Max_cycle;Signal;HPM_P1;HPM_P2
2023/05/14 00:02:16;;;;;;;11.70;5.10;;;;;;;7.85;100.00;100724.55;105973;1257;61043;-55
2023/05/14 00:04:43;;;;;;;7.50;3.90;;;;;;;7.80;100.00;100724.74;105823;1256;72413;-54
2023/05/14 00:07:10;;;;;;;8.40;3.60;;;;;;;7.76;100.00;100726.53;106134;1251;68668;-54
2023/05/14 00:09:37;;;;;;;7.20;4.30;;;;;;;7.71;100.00;100728.39;106039;1256;73426;-55
2023/05/14 00:12:05;;;;;;;7.70;4.40;;;;;;;7.68;100.00;100722.33;105857;1256;61983;-58
2023/05/14 00:14:32;;;;;;;10.60;4.60;;;;;;;7.63;100.00;100723.66;105508;1256;61881;-55
2023/05/14 00:16:59;;;;;;;7.40;4.60;;;;;;;7.60;100.00;100720.73;105619;1256;74514;-57
2023/05/14 00:19:26;;;;;;;10.10;4.60;;;;;;;7.54;100.00;100718.83;105757;1251;68731;-54
2023/05/14 00:21:53;;;;;;;10.80;4.80;;;;;;;7.50;100.00;100721.65;105743;1257;73134;-56
2023/05/14 00:24:20;;;;;;;8.00;4.90;;;;;;;7.47;100.00;100719.89;105616;1251;61948;-54
2023/05/14 00:26:48;;;;;;;8.80;5.40;;;;;;;7.42;100.00;100722.80;105618;1254;60643;-57
2023/05/14 00:29:15;;;;;;;7.50;4.10;;;;;;;7.37;100.00;100720.55;106055;1251;74766;-56
2023/05/14 00:31:43;;;;;;;9.60;4.50;;;;;;;7.32;100.00;100723.60;105642;1251;67043;-53
2023/05/14 00:34:10;;;;;;;8.90;4.80;;;;;;;7.27;100.00;100722.48;105639;1251;74394;-56
2023/05/14 00:36:37;;;;;;;8.20;4.50;;;;;;;7.23;100.00;100721.58;105626;1251;60614;-56
2023/05/14 00:39:04;;;;;;;10.40;5.00;;;;;;;7.19;100.00;100728.54;105956;1253;60648;-54
2023/05/14 00:41:33;;;;;;;8.90;4.90;;;;;;;7.12;100.00;100721.71;106024;1254;73293;-56
2023/05/14 00:44:01;;;;;;;7.50;4.40;;;;;;;7.09;100.00;100717.56;105902;1254;67519;-54
2023/05/14 00:46:29;;;;;;;7.80;4.20;;;;;;;7.05;100.00;100715.86;105768;1254;74416;-54
2023/05/14 00:48:57;;;;;;;7.00;3.60;;;;;;;7.04;100.00;100720.27;105423;1253;63298;-58
2023/05/14 00:51:24;;;;;;;9.40;4.00;;;;;;;7.05;100.00;100720.53;105358;1252;61555;-54
2023/05/14 00:53:51;;;;;;;7.00;4.30;;;;;;;7.04;100.00;100719.18;105479;1254;74560;-57
2023/05/14 00:56:19;;;;;;;6.90;4.20;;;;;;;7.05;100.00;100723.77;105738;1254;68693;-55
2023/05/14 00:58:46;;;;;;;6.60;4.50;;;;;;;7.06;100.00;100720.96;105768;1254;74225;-54
2023/05/14 01:01:14;;;;;;;7.70;3.70;;;;;;;7.06;100.00;100720.40;105672;1254;61706;-56
2023/05/14 01:03:41;;;;;;;7.30;4.10;;;;;;;7.10;100.00;100723.32;105861;1254;61904;-55
2023/05/14 01:06:25;;;;;;;6.50;3.30;;;;;;;7.15;100.00;100725.98;105480;1258;74648;-56
2023/05/14 01:09:12;;;;;;;7.50;3.50;;;;;;;7.22;100.00;100723.69;105871;1260;68637;-59
2023/05/14 01:11:40;;;;;;;8.20;4.00;;;;;;;7.28;100.00;100725.02;105640;1254;73232;-55
2023/05/14 01:14:28;;;;;;;6.50;4.20;;;;;;;7.30;100.00;100727.21;105560;1253;61618;-54
2023/05/14 01:16:57;;;;;;;7.70;4.20;;;;;;;7.29;100.00;100726.33;105691;1257;60669;-56
2023/05/14 01:19:38;;;;;;;7.30;3.70;;;;;;;7.27;100.00;100726.15;105571;1257;74950;-56
2023/05/14 01:22:05;;;;;;;7.10;3.30;;;;;;;7.27;100.00;100728.96;105363;1257;68353;-59
2023/05/14 01:24:33;;;;;;;8.40;4.10;;;;;;;7.24;100.00;100729.38;105573;1256;74328;-56
2023/05/14 01:27:08;;;;;;;5.90;3.90;;;;;;;7.21;100.00;100723.29;105956;1251;61851;-56
2023/05/14 01:29:36;;;;;;;7.50;4.20;;;;;;;7.18;100.00;100726.54;105321;1256;61000;-56
2023/05/14 01:32:05;;;;;;;7.10;4.00;;;;;;;7.14;100.00;100729.31;105581;1251;74205;-59
2023/05/14 01:34:32;;;;;;;8.90;4.40;;;;;;;7.10;100.00;100732.84;105426;1251;68715;-53
2023/05/14 01:36:59;;;;;;;7.50;3.40;;;;;;;7.05;100.00;100736.27;105844;1254;73228;-56
2023/05/14 01:39:27;;;;;;;9.10;3.80;;;;;;;6.99;100.00;100733.73;105336;1259;62306;-54
2023/05/14 01:41:54;;;;;;;8.10;4.50;;;;;;;6.95;100.00;100733.59;106239;1251;61767;-60
2023/05/14 01:44:21;;;;;;;8.40;3.60;;;;;;;6.90;100.00;100733.22;105556;1251;74230;-54
2023/05/14 01:46:48;;;;;;;8.10;4.30;;;;;;;6.85;100.00;100734.69;105688;1251;68548;-54
2023/05/14 01:49:17;;;;;;;8.60;4.40;;;;;;;6.80;100.00;100734.20;105811;1251;74156;-54
2023/05/14 01:51:44;;;;;;;6.60;4.00;;;;;;;6.75;100.00;100738.28;106271;1251;62706;-54
2023/05/14 01:54:11;;;;;;;6.80;3.90;;;;;;;6.72;100.00;100738.70;105487;1251;60995;-53
2023/05/14 01:56:38;;;;;;;7.90;3.80;;;;;;;6.70;100.00;100738.03;105503;1254;75338;-54
2023/05/14 01:59:05;;;;;;;7.20;3.90;;;;;;;6.71;100.00;100738.52;105802;1253;68588;-55
2023/05/14 02:01:33;;;;;;;7.20;3.70;;;;;;;6.73;100.00;100741.79;105681;1256;74204;-54
2023/05/14 02:04:00;;;;;;;8.80;4.40;;;;;;;6.77;100.00;100741.38;104893;1253;62220;-54
2023/05/14 02:06:28;;;;;;;8.10;4.00;;;;;;;6.83;100.00;100739.89;105712;1251;60600;-54
2023/05/14 02:08:55;;;;;;;7.90;3.30;;;;;;;6.91;100.00;100739.63;105603;1256;75254;-55
2023/05/14 02:11:22;;;;;;;6.70;3.20;;;;;;;6.99;100.00;100736.17;105294;1251;67196;-54
2023/05/14 02:13:50;;;;;;;8.90;3.90;;;;;;;7.06;100.00;100739.78;105829;1251;74398;-55
2023/05/14 02:16:18;;;;;;;9.50;4.80;;;;;;;7.14;100.00;100737.45;105420;1254;62164;-55
2023/05/14 02:18:45;;;;;;;5.40;3.40;;;;;;;7.25;100.00;100739.00;105483;1254;61054;-54
2023/05/14 02:21:12;;;;;;;5.60;3.40;;;;;;;7.32;100.00;100739.13;105334;1257;75236;-56
2023/05/14 02:23:39;;;;;;;5.70;3.80;;;;;;;7.38;100.00;100739.98;105465;1254;66473;-55
2023/05/14 02:26:09;;;;;;;10.70;3.60;;;;;;;7.44;100.00;100732.66;106025;1254;73223;-60
2023/05/14 02:28:36;;;;;;;7.70;4.20;;;;;;;7.53;100.00;100735.06;105433;1254;60623;-55
2023/05/14 02:31:03;;;;;;;10.20;4.30;;;;;;;7.61;100.00;100734.41;105590;1254;61635;-59
2023/05/14 02:33:31;;;;;;;7.50;3.60;;;;;;;7.67;100.00;100734.10;105563;1252;74278;-55
2023/05/14 02:35:58;;;;;;;6.80;3.70;;;;;;;7.77;100.00;100732.67;105301;1251;68719;-58
2023/05/14 02:38:25;;;;;;;7.00;4.00;;;;;;;7.92;100.00;100730.78;105647;1256;73062;-54
2023/05/14 02:40:52;;;;;;;7.10;4.10;;;;;;;8.07;100.00;100729.10;105769;1251;60926;-57
2023/05/14 02:43:20;;;;;;;8.40;4.10;;;;;;;8.19;100.00;100720.79;105523;1251;61829;-56
2023/05/14 02:45:47;;;;;;;9.80;3.90;;;;;;;8.30;100.00;100721.90;105673;1251;75318;-53
2023/05/14 02:48:14;;;;;;;10.70;3.80;;;;;;;8.44;100.00;100720.91;105574;1251;68558;-58
2023/05/14 02:50:42;;;;;;;5.90;3.30;;;;;;;8.64;100.00;100721.22;105541;1251;73148;-55
2023/05/14 02:53:09;;;;;;;6.50;3.40;;;;;;;8.75;100.00;100718.82;105862;1251;63506;-56
2023/05/14 02:55:36;;;;;;;7.00;4.10;;;;;;;8.89;100.00;100709.05;105717;1255;61996;-54
2023/05/14 02:58:03;;;;;;;8.20;4.20;;;;;;;9.09;100.00;100710.59;105544;1255;75253;-57
2023/05/14 03:00:31;;;;;;;6.90;4.30;;;;;;;9.42;100.00;100707.83;105364;1257;67413;-59
2023/05/14 03:02:59;;;;;;;5.90;3.60;;;;;;;10.00;100.00;100709.49;105785;1252;74196;-60
2023/05/14 03:05:26;;;;;;;9.30;3.50;;;;;;;10.71;100.00;100705.23;105630;1251;63648;-56
2023/05/14 03:07:53;;;;;;;5.80;3.70;;;;;;;11.48;100.00;100703.81;105553;1255;60797;-56
2023/05/14 03:10:20;;;;;;;8.10;4.10;;;;;;;12.22;100.00;100703.62;105214;1256;75095;-55
2023/05/14 03:12:48;;;;;;;6.20;3.80;;;;;;;12.94;100.00;100698.06;105523;1251;68461;-56
2023/05/14 03:15:15;;;;;;;5.80;4.00;;;;;;;13.70;100.00;100691.02;105549;1253;73030;-55
2023/05/14 03:17:42;;;;;;;6.90;4.10;;;;;;;14.50;100.00;100689.88;105675;1254;60759;-55
2023/05/14 03:20:11;;;;;;;7.40;3.30;;;;;;;15.31;100.00;100686.78;105934;1256;60361;-56
2023/05/14 03:22:38;;;;;;;6.40;3.70;;;;;;;16.05;100.00;100685.98;105466;1251;75465;-55
2023/05/14 03:25:06;;;;;;;7.00;3.20;;;;;;;16.64;100.00;100686.11;105607;1255;67680;-60
2023/05/14 03:27:35;;;;;;;5.20;3.40;;;;;;;17.16;100.00;100682.27;105463;1256;73309;-54
2023/05/14 03:30:04;;;;;;;6.50;3.30;;;;;;;17.72;100.00;100682.09;105841;1251;62232;-55
2023/05/14 03:32:32;;;;;;;7.50;3.40;;;;;;;18.30;100.00;100686.48;106039;1254;60975;-54
2023/05/14 03:34:59;;;;;;;5.10;2.80;;;;;;;18.99;100.00;100691.16;105816;1257;75206;-59
2023/05/14 03:37:27;;;;;;;5.30;3.60;;;;;;;19.69;95.32;100686.15;105495;1251;68452;-54
2023/05/14 03:39:54;;;;;;;6.10;3.10;;;;;;;20.29;83.02;100686.33;106129;1256;74060;-58
2023/05/14 03:42:21;;;;;;;6.60;3.30;;;;;;;20.79;70.11;100686.70;105598;1251;62045;-54
2023/05/14 03:44:48;;;;;;;10.00;3.90;;;;;;;21.16;61.84;100683.45;105610;1254;60746;-54
2023/05/14 03:47:15;;;;;;;7.00;3.10;;;;;;;21.46;55.68;100686.51;105576;1255;75544;-54
2023/05/14 03:49:43;;;;;;;5.90;3.20;;;;;;;21.71;53.06;100685.26;105462;1251;68516;-59
2023/05/14 03:52:11;;;;;;;6.20;3.50;;;;;;;22.00;50.68;100688.27;105339;1251;74057;-54
2023/05/14 03:54:40;;;;;;;6.90;3.90;;;;;;;22.27;48.43;100688.27;105618;1251;61836;-54
2023/05/14 03:57:07;;;;;;;5.50;3.50;;;;;;;22.49;46.59;100688.85;105677;1253;61795;-54
2023/05/14 03:59:34;;;;;;;5.20;3.90;;;;;;;22.66;45.75;100692.16;105488;1255;75443;-54
2023/05/14 04:02:01;;;;;;;6.30;4.00;;;;;;;22.91;44.50;100689.91;105390;1251;69214;-55
2023/05/14 04:04:28;;;;;;;5.60;3.60;;;;;;;23.26;43.08;100684.27;106051;1251;74022;-55
2023/05/14 04:06:56;;;;;;;6.00;3.70;;;;;;;23.62;41.56;100681.98;106049;1255;61634;-54
2023/05/14 04:09:23;;;;;;;4.30;3.30;;;;;;;24.01;40.75;100684.10;105749;1256;60521;-54
2023/05/14 04:11:51;;;;;;;4.20;3.40;;;;;;;24.39;38.70;100688.53;105802;1256;75353;-56
2023/05/14 04:14:18;;;;;;;6.20;3.90;;;;;;;24.62;37.45;100688.90;105567;1255;67978;-57
2023/05/14 04:16:45;;;;;;;7.60;4.20;;;;;;;24.80;36.79;100680.48;106177;1253;73094;-56
2023/05/14 04:19:13;;;;;;;7.30;4.00;;;;;;;24.98;36.22;100679.23;105785;1251;60946;-56
2023/05/14 04:21:41;;;;;;;5.00;3.70;;;;;;;25.10;35.69;100674.65;105661;1254;61902;-60
2023/05/14 04:31:53;;;;;;;6.10;4.00;;;;;;;25.92;33.77;100679.11;102101;1293;601321;-56
2023/05/14 04:34:20;;;;;;;5.10;3.40;;;;;;;26.15;33.46;100673.48;104582;1263;62789;-56
2023/05/14 04:36:47;;;;;;;6.40;3.40;;;;;;;26.43;32.99;100671.54;104863;1267;61705;-57
2023/05/14 04:39:14;;;;;;;5.10;3.30;;;;;;;26.73;31.89;100667.48;105452;1254;74726;-55
2023/05/14 04:41:41;;;;;;;5.80;3.00;;;;;;;26.95;31.15;100665.89;105569;1256;69403;-59
2023/05/14 04:44:08;;;;;;;5.80;3.40;;;;;;;27.22;30.74;100668.91;105444;1254;73985;-55
2023/05/14 04:46:36;;;;;;;4.70;3.10;;;;;;;27.45;30.41;100667.53;105713;1256;191920;-55
2023/05/14 04:49:03;;;;;;;6.50;3.60;;;;;;;27.62;30.16;100662.56;105544;1250;63673;-55
2023/05/14 04:51:31;;;;;;;4.40;3.10;;;;;;;27.85;29.88;100666.41;108847;1251;74500;-60
2023/05/14 04:53:58;;;;;;;4.50;3.20;;;;;;;28.17;29.34;100668.20;105586;1257;68256;-55
2023/05/14 04:56:26;;;;;;;4.90;3.40;;;;;;;28.47;28.54;100664.41;105621;1251;74840;-54
2023/05/14 04:58:53;;;;;;;8.80;3.10;;;;;;;28.67;28.25;100662.80;105798;1251;61873;-56
2023/05/14 05:01:21;;;;;;;4.20;2.70;;;;;;;28.78;27.83;100663.48;105788;1251;61861;-58
2023/05/14 05:03:48;;;;;;;3.80;2.90;;;;;;;28.96;27.61;100664.50;105507;1251;74277;-56
2023/05/14 05:06:15;;;;;;;5.10;3.00;;;;;;;29.17;27.67;100664.94;105577;1251;69479;-56
2023/05/14 05:08:42;;;;;;;5.20;3.10;;;;;;;29.41;27.43;100662.77;105859;1251;75210;-55
2023/05/14 05:11:09;;;;;;;5.60;3.10;;;;;;;29.66;27.06;100663.77;105310;1257;63193;-62
2023/05/14 05:13:36;;;;;;;6.60;2.80;;;;;;;29.91;26.43;100662.21;105476;1256;62556;-54
2023/05/14 05:16:04;;;;;;;4.60;2.90;;;;;;;30.01;26.10;100659.46;105296;1251;74893;-54
2023/05/14 05:18:31;;;;;;;5.50;2.90;;;;;;;30.10;26.21;100653.45;105690;1254;69340;-54
2023/05/14 05:20:59;;;;;;;6.60;3.10;;;;;;;30.31;26.25;100656.70;105314;1250;75172;-58
2023/05/14 05:23:26;;;;;;;5.10;3.10;;;;;;;30.58;25.92;100657.55;105369;1251;61368;-61
2023/05/14 05:25:53;;;;;;;9.70;4.70;;;;;;;30.80;26.16;100655.73;105281;1252;62515;-54
2023/05/14 05:28:20;;;;;;;4.40;2.60;;;;;;;31.11;25.39;100654.52;105565;1250;74174;-55
2023/05/14 05:30:47;;;;;;;6.10;2.90;;;;;;;31.26;25.10;100653.91;105668;1251;68537;-55
2023/05/14 05:33:15;;;;;;;4.00;2.30;;;;;;;31.36;25.11;100652.61;105704;1251;75082;-59
2023/05/14 05:35:43;;;;;;;4.90;2.20;;;;;;;31.55;24.59;100654.45;105544;1256;62769;-59
2023/05/14 05:38:10;;;;;;;4.70;2.10;;;;;;;31.69;24.54;100654.04;105572;1251;62758;-55
2023/05/14 05:40:37;;;;;;;3.40;2.00;;;;;;;31.86;24.39;100654.85;105520;1256;74829;-56
2023/05/14 05:43:04;;;;;;;4.70;2.40;;;;;;;32.08;24.24;100650.23;105808;1254;69539;-59
2023/05/14 05:45:32;;;;;;;3.60;2.40;;;;;;;32.31;23.91;100648.58;105511;1256;74063;-55
2023/05/14 05:47:59;;;;;;;4.70;2.30;;;;;;;32.48;23.75;100651.23;105595;1250;62747;-55
2023/05/14 05:50:26;;;;;;;6.60;3.20;;;;;;;32.55;23.65;100650.77;105722;1251;62126;-54
2023/05/14 05:52:53;;;;;;;4.50;2.70;;;;;;;32.65;24.00;100650.70;105235;1256;66870;-56
2023/05/14 05:55:21;;;;;;;3.90;2.10;;;;;;;32.87;23.87;100649.92;105484;1257;68218;-55
2023/05/14 05:57:48;;;;;;;5.40;2.90;;;;;;;33.01;23.61;100649.21;105573;1251;65334;-58
2023/05/14 06:00:16;;;;;;;7.40;3.00;;;;;;;33.15;23.70;100654.83;105355;1256;59717;-55
2023/05/14 06:02:43;;;;;;;3.50;2.40;;;;;;;33.37;23.54;100654.25;105664;1257;59663;-54
2023/05/14 06:05:10;;;;;;;4.50;2.80;;;;;;;33.63;23.34;100652.73;105562;1251;74182;-55
2023/05/14 06:07:37;;;;;;;4.30;2.80;;;;;;;33.96;23.17;100650.69;105778;1255;69539;-55
2023/05/14 06:10:06;;;;;;;6.40;2.20;;;;;;;34.14;23.04;100648.13;105552;1257;66263;-55
2023/05/14 06:12:33;;;;;;;3.70;2.40;;;;;;;34.28;22.89;100642.73;105711;1251;62724;-56
2023/05/14 06:15:00;;;;;;;7.00;2.40;;;;;;;34.50;22.91;100640.04;105741;1252;59314;-58
2023/05/14 06:17:27;;;;;;;5.60;2.50;;;;;;;34.67;22.78;100641.75;105522;1253;66751;-56
2023/05/14 06:19:54;;;;;;;6.00;2.90;;;;;;;34.72;22.49;100639.69;105634;1257;60933;-58
2023/05/14 06:22:21;;;;;;;3.40;2.40;;;;;;;34.70;22.75;100638.67;105632;1256;65868;-55
2023/05/14 06:24:49;;;;;;;4.50;2.80;;;;;;;34.87;22.97;100637.31;105663;1251;63242;-56
2023/05/14 06:27:16;;;;;;;4.00;2.50;;;;;;;35.16;22.82;100637.52;105393;1256;62578;-55
2023/05/14 06:29:43;;;;;;;8.00;2.80;;;;;;;35.43;22.53;100634.95;105594;1250;65484;-57
2023/05/14 06:32:14;;;;;;;3.70;2.50;;;;;;;35.61;22.40;100632.40;105698;1251;59642;-61
2023/05/14 06:34:42;;;;;;;3.50;1.90;;;;;;;35.70;22.45;100635.45;105497;1254;65538;-61
2023/05/14 06:37:10;;;;;;;3.90;2.30;;;;;;;35.88;22.35;100632.41;105472;1257;59659;-56
2023/05/14 06:39:37;;;;;;;5.70;2.60;;;;;;;36.09;22.20;100632.55;105350;1251;59500;-54
2023/05/14 06:42:05;;;;;;;5.10;2.60;;;;;;;36.35;21.98;100631.61;105975;1251;67129;-55
2023/05/14 06:44:32;;;;;;;5.70;2.30;;;;;;;36.56;21.71;100629.61;105694;1256;60997;-56
2023/05/14 06:46:59;;;;;;;4.90;2.80;;;;;;;36.80;21.45;100627.55;105778;1254;65139;-61
2023/05/14 06:49:26;;;;;;;17.40;3.50;;;;;;;36.95;21.15;100629.73;105462;1250;59723;-55
2023/05/14 06:51:53;;;;;;;4.10;2.20;;;;;;;37.01;21.15;100629.41;105429;1257;59656;-55
2023/05/14 06:54:20;;;;;;;4.10;2.20;;;;;;;37.08;21.16;100628.77;105596;1252;66954;-55
2023/05/14 06:56:47;;;;;;;6.80;2.60;;;;;;;37.15;21.29;100628.96;105486;1251;60826;-59
2023/05/14 06:59:15;;;;;;;3.30;2.40;;;;;;;37.28;21.26;100624.10;105678;1251;66611;-53
2023/05/14 07:01:42;;;;;;;4.40;2.20;;;;;;;37.45;20.54;100626.98;105615;1251;60069;-55
2023/05/14 07:04:09;;;;;;;6.80;2.50;;;;;;;37.73;19.57;100620.64;105906;1254;61800;-60
2023/05/14 07:06:36;;;;;;;5.20;2.50;;;;;;;38.05;19.02;100614.90;105336;1255;66891;-55
2023/05/14 07:09:04;;;;;;;4.10;2.30;;;;;;;38.00;19.48;100612.81;105585;1254;60784;-58
2023/05/14 07:11:31;;;;;;;3.90;2.70;;;;;;;38.07;19.67;100612.92;105883;1252;66476;-55
2023/05/14 07:13:58;;;;;;;6.50;2.70;;;;;;;38.25;19.38;100611.93;105978;1256;59557;-55
2023/05/14 07:16:25;;;;;;;3.80;2.50;;;;;;;38.37;19.09;100608.42;105734;1256;59592;-55
2023/05/14 07:18:53;;;;;;;10.20;3.40;;;;;;;38.40;18.97;100607.70;105607;1256;66867;-57
2023/05/14 07:21:20;;;;;;;8.10;2.40;;;;;;;38.38;19.30;100609.77;105793;1255;60798;-56
2023/05/14 07:23:47;;;;;;;4.00;2.20;;;;;;;38.31;17.99;100608.08;105478;1257;65193;-55
2023/05/14 07:26:14;;;;;;;4.30;2.30;;;;;;;38.25;18.32;100605.93;105930;1251;60548;-58
2023/05/14 07:28:41;;;;;;;4.20;2.20;;;;;;;38.19;17.66;100602.73;105337;1255;59559;-59
2023/05/14 07:31:08;;;;;;;2.90;1.70;;;;;;;37.77;16.43;100606.42;105402;1252;65713;-55
2023/05/14 07:33:37;;;;;;;3.30;1.70;;;;;;;36.96;16.77;100607.59;105697;1254;59877;-55
2023/05/14 07:36:04;;;;;;;3.50;2.00;;;;;;;36.25;16.87;100604.21;105682;1256;66736;-56
2023/05/14 07:38:32;;;;;;;3.30;1.60;;;;;;;35.79;17.74;100605.34;105254;1257;60145;-59
2023/05/14 07:40:59;;;;;;;3.60;1.90;;;;;;;35.37;17.87;100607.05;105217;1251;59531;-55
2023/05/14 07:43:26;;;;;;;2.80;1.80;;;;;;;34.92;17.95;100607.58;105713;1251;66036;-55
2023/05/14 07:45:54;;;;;;;4.30;2.50;;;;;;;34.52;18.31;100608.05;105622;1251;61199;-58
2023/05/14 07:48:21;;;;;;;3.50;2.10;;;;;;;34.16;18.77;100607.52;106097;1252;65465;-58
2023/05/14 07:50:48;;;;;;;2.90;1.70;;;;;;;33.76;18.97;100609.09;105284;1254;59672;-59
2023/05/14 07:53:16;;;;;;;3.80;2.60;;;;;;;33.26;19.39;100609.36;105578;1252;62738;-55
2023/05/14 07:55:44;;;;;;;3.20;2.10;;;;;;;32.90;19.95;100608.83;105502;1251;74374;-54
2023/05/14 07:58:11;;;;;;;6.60;2.40;;;;;;;32.62;20.26;100609.48;105435;1251;59902;-55
2023/05/14 08:00:39;;;;;;;3.90;2.50;;;;;;;32.34;20.50;100609.36;105860;1251;73123;-59
2023/05/14 08:03:06;;;;;;;4.70;2.20;;;;;;;32.13;20.54;100611.94;105350;1256;62974;-55
2023/05/14 08:05:33;;;;;;;3.10;2.10;;;;;;;31.86;21.03;100612.30;105486;1251;62741;-55
2023/05/14 08:08:01;;;;;;;3.30;2.30;;;;;;;31.65;20.76;100607.65;105362;1256;75656;-56
2023/05/14 08:10:28;;;;;;;4.40;2.30;;;;;;;31.46;21.29;100610.23;106270;1255;69503;-58
2023/05/14 08:12:56;;;;;;;3.60;2.10;;;;;;;31.28;21.55;100611.40;105838;1256;75467;-55
2023/05/14 08:15:23;;;;;;;5.30;2.00;;;;;;;31.19;21.97;100611.33;105632;1256;61852;-56
2023/05/14 08:17:53;;;;;;;4.30;2.20;;;;;;;31.10;22.06;100609.83;105502;1257;61725;-54
2023/05/14 08:20:21;;;;;;;5.90;2.10;;;;;;;30.95;22.08;100611.83;105811;1250;75412;-60
2023/05/14 08:22:48;;;;;;;5.30;2.50;;;;;;;30.91;22.09;100609.09;105199;1250;68101;-60
2023/05/14 08:25:16;;;;;;;4.90;2.30;;;;;;;30.86;22.29;100610.23;105522;1251;74644;-57
2023/05/14 08:27:43;;;;;;;4.30;1.90;;;;;;;30.84;22.34;100610.09;105636;1251;62574;-56
2023/05/14 08:30:11;;;;;;;5.70;2.50;;;;;;;30.77;22.02;100613.01;105515;1251;62284;-59
2023/05/14 08:32:38;;;;;;;4.10;2.40;;;;;;;30.56;21.91;100609.59;105872;1251;75703;-58
2023/05/14 08:35:06;;;;;;;4.30;3.20;;;;;;;30.43;21.91;100605.05;105483;1252;70145;-55
2023/05/14 08:37:33;;;;;;;3.80;2.10;;;;;;;30.28;22.43;100603.35;105551;1256;74374;-54
2023/05/14 08:40:00;;;;;;;3.20;2.00;;;;;;;30.24;22.34;100606.37;105411;1257;62760;-60
2023/05/14 08:42:28;;;;;;;3.70;2.00;;;;;;;30.26;22.13;100606.06;105186;1252;63377;-56
2023/05/14 08:45:02;;;;;;;4.00;2.10;;;;;;;30.28;22.16;100601.05;105412;1257;75038;-55
2023/05/14 08:47:29;;;;;;;3.40;2.50;;;;;;;30.26;22.16;100599.01;105517;1251;69627;-55
2023/05/14 08:50:01;;;;;;;3.90;2.00;;;;;;;30.15;22.10;100597.20;105819;1252;74577;-56
2023/05/14 08:52:29;;;;;;;4.10;2.10;;;;;;;30.14;22.04;100594.00;105472;1256;61785;-55
2023/05/14 08:54:58;;;;;;;2.60;1.70;;;;;;;30.23;21.82;100587.88;105690;1254;61507;-55
2023/05/14 08:57:25;;;;;;;3.60;1.90;;;;;;;30.33;21.55;100584.64;105438;1257;75445;-54
2023/05/14 08:59:52;;;;;;;3.20;1.80;;;;;;;30.38;21.73;100581.77;105610;1256;69231;-56
2023/05/14 09:02:22;;;;;;;4.20;2.70;;;;;;;30.48;22.05;100581.34;105278;1256;75172;-55
2023/05/14 09:04:57;;;;;;;3.10;1.90;;;;;;;30.59;21.84;100578.71;105719;1251;63035;-58
2023/05/14 09:07:24;;;;;;;3.60;2.20;;;;;;;30.70;21.93;100576.91;105242;1251;62754;-57
2023/05/14 09:09:52;;;;;;;5.20;2.10;;;;;;;30.80;21.87;100577.15;105610;1251;76526;-56
2023/05/14 09:12:20;;;;;;;3.80;2.10;;;;;;;30.87;21.63;100571.09;105970;1251;69214;-57
2023/05/14 09:14:48;;;;;;;5.90;2.60;;;;;;;30.92;21.67;100565.66;105540;1251;75707;-55
2023/05/14 09:17:15;;;;;;;4.90;2.30;;;;;;;30.96;21.83;100565.81;105558;1256;61997;-55
2023/05/14 09:19:43;;;;;;;4.40;2.50;;;;;;;31.08;22.10;100563.48;105852;1251;61697;-59
2023/05/14 09:22:14;;;;;;;3.50;2.00;;;;;;;31.18;21.80;100563.99;105288;1251;76262;-55
2023/05/14 09:24:42;;;;;;;5.50;2.40;;;;;;;31.22;21.34;100563.14;105594;1254;69590;-55
2023/05/14 09:27:20;;;;;;;7.80;2.60;;;;;;;31.16;21.65;100562.73;105582;1256;73858;-53
2023/05/14 09:29:47;;;;;;;6.30;2.20;;;;;;;31.01;21.22;100556.80;105275;1251;62866;-54
2023/05/14 09:32:14;;;;;;;3.60;2.40;;;;;;;30.91;21.24;100554.13;105746;1251;61605;-54
2023/05/14 09:34:41;;;;;;;2.90;1.80;;;;;;;30.83;21.14;100550.95;105402;1251;74816;-53
2023/05/14 09:37:08;;;;;;;4.10;2.20;;;;;;;30.70;21.35;100547.84;105514;1252;69281;-53
2023/05/14 09:39:36;;;;;;;3.30;2.40;;;;;;;30.71;21.60;100548.34;105881;1254;74847;-57
2023/05/14 09:42:04;;;;;;;5.10;2.40;;;;;;;30.75;21.46;100542.39;105322;1251;62643;-58
2023/05/14 09:44:32;;;;;;;5.80;2.40;;;;;;;31.09;21.84;100540.84;105774;1251;63119;-56
2023/05/14 09:46:59;;;;;;;4.70;2.60;;;;;;;31.70;21.59;100537.30;105613;1251;76057;-54
2023/05/14 09:49:27;;;;;;;6.40;2.10;;;;;;;32.26;20.22;100539.75;105776;1251;69524;-55
2023/05/14 09:51:56;;;;;;;2.70;1.80;;;;;;;32.68;19.67;100534.08;105700;1252;75041;-55
2023/05/14 09:54:25;;;;;;;5.00;2.20;;;;;;;32.92;19.51;100530.39;105643;1257;61793;-54
2023/05/14 09:56:52;;;;;;;5.10;2.40;;;;;;;33.30;19.17;100528.44;105685;1251;62845;-55
2023/05/14 09:59:21;;;;;;;5.20;2.30;;;;;;;33.70;18.71;100519.64;105932;1251;75307;-54
2023/05/14 10:01:48;;;;;;;4.00;2.10;;;;;;;34.01;18.10;100513.78;105478;1257;68265;-54
2023/05/14 10:04:15;;;;;;;2.60;1.90;;;;;;;34.05;17.78;100504.81;105457;1254;74308;-61
2023/05/14 10:06:42;;;;;;;6.00;2.00;;;;;;;33.84;18.02;100505.39;105417;1259;62661;-55
2023/05/14 10:09:12;;;;;;;3.30;2.20;;;;;;;33.75;18.44;100499.88;105718;1251;62863;-55
2023/05/14 10:11:41;;;;;;;3.80;2.20;;;;;;;33.83;18.73;100494.61;105541;1256;76068;-55
2023/05/14 10:14:28;;;;;;;3.40;1.90;;;;;;;34.06;18.15;100492.00;105900;1256;60415;-56
2023/05/14 10:16:55;;;;;;;2.40;1.80;;;;;;;34.33;17.76;100487.33;105682;1257;66578;-60
2023/05/14 10:19:23;;;;;;;3.30;2.10;;;;;;;34.58;17.46;100487.14;105542;1257;62105;-56
2023/05/14 10:22:02;;;;;;;3.40;2.00;;;;;;;34.72;17.80;100483.40;105857;1250;60462;-55
2023/05/14 10:24:30;;;;;;;3.30;2.40;;;;;;;34.95;17.62;100477.75;105683;1251;66347;-55
2023/05/14 10:26:57;;;;;;;5.10;2.10;;;;;;;35.12;17.07;100474.45;105950;1251;60770;-55
2023/05/14 10:29:36;;;;;;;5.50;2.20;;;;;;;35.10;17.05;100474.26;106098;1255;65541;-56
2023/05/14 10:32:05;;;;;;;3.10;2.10;;;;;;;34.98;17.31;100472.95;105760;1251;62841;-54
2023/05/14 10:34:37;;;;;;;3.80;1.90;;;;;;;34.87;16.78;100473.95;105344;1251;60299;-60
2023/05/14 10:37:09;;;;;;;13.70;3.10;;;;;;;34.56;16.54;100474.74;105497;1251;66367;-56
2023/05/14 10:39:55;;;;;;;12.60;3.10;;;;;;;34.09;16.85;100477.86;105645;1257;61027;-55
2023/05/14 10:42:26;;;;;;;5.00;2.00;;;;;;;33.78;17.30;100484.93;105830;1253;74869;-58
2023/05/14 10:45:06;;;;;;;23.20;4.20;;;;;;;33.54;18.47;100481.70;105918;1256;62884;-54
2023/05/14 10:47:44;;;;;;;23.70;3.90;;;;;;;33.15;19.24;100483.98;105552;1256;61910;-56
2023/05/14 10:50:15;;;;;;;8.60;2.30;;;;;;;32.76;19.47;100487.72;105681;1254;76573;-60
2023/05/14 10:52:45;;;;;;;7.60;2.30;;;;;;;32.38;19.83;100492.62;105574;1257;68100;-55
2023/05/14 10:55:13;;;;;;;2.60;1.80;;;;;;;32.14;19.69;100496.56;105541;1254;74796;-55
2023/05/14 10:57:42;;;;;;;12.80;2.90;;;;;;;31.85;20.23;100495.33;105912;1251;62556;-56
2023/05/14 11:00:10;;;;;;;5.90;2.30;;;;;;;31.48;20.87;100491.08;106280;1251;62878;-58
2023/05/14 11:02:38;;;;;;;22.10;2.30;;;;;;;31.15;21.37;100498.77;105772;1252;75095;-56
2023/05/14 11:05:08;;;;;;;5.00;1.80;;;;;;;30.96;21.50;100495.15;105828;1251;69558;-54
2023/05/14 11:07:36;;;;;;;3.20;1.70;;;;;;;30.64;22.02;100494.79;105787;1251;74907;-55
2023/05/14 11:10:11;;;;;;;4.70;1.50;;;;;;;30.39;22.41;100499.45;106222;1257;61906;-55
2023/05/14 11:12:40;;;;;;;2.90;1.40;;;;;;;30.25;22.73;100496.37;105826;1251;63332;-55
2023/05/14 11:15:11;;;;;;;2.60;1.50;;;;;;;30.29;22.69;100495.98;105928;1251;76744;-56
2023/05/14 11:17:40;;;;;;;2.60;1.40;;;;;;;30.35;22.82;100493.88;105918;1251;69097;-55
2023/05/14 11:20:08;;;;;;;3.30;1.60;;;;;;;30.50;22.42;100492.27;106086;1253;75126;-55
2023/05/14 11:22:36;;;;;;;4.60;1.70;;;;;;;30.58;22.22;100495.59;105897;1257;61810;-55
2023/05/14 11:25:05;;;;;;;3.50;1.40;;;;;;;30.58;21.39;100496.13;105891;1257;61587;-55
2023/05/14 11:27:38;;;;;;;2.20;1.30;;;;;;;30.44;21.80;100496.77;105803;1250;74937;-55
2023/05/14 11:30:18;;;;;;;5.30;2.10;;;;;;;30.34;21.69;100499.10;105617;1257;69786;-57